Terminal Aerodrome Forecast
Issued by NWS Charleston, WV

Current Version | Previous Version | Text Only | Print | Product List | Glossary Off
Versions: 1 2 3 4 5 6 7 8 9 10 11 12 13 14 15 16 17 18 19 20 21 22 23

918
FTUS41 KRLX 271503 AAA
TAFEKN
TAF AMD
KEKN 271503Z 2715/2812 21007KT P6SM -RA OVC022
     FM271800 25006KT 6SM SHRA VCTS BKN030CB
     FM272100 26006KT 6SM SHRA VCTS BKN035CB
     FM280200 28004KT 6SM SHRA VCTS BKN025CB
     FM280600 VRB03KT P6SM BKN010
     FM280900 VRB03KT P6SM BKN006=

USA.gov is the U.S. government's official web portal to all federal, state and local government web resources and services.